sensor_id;sensor_type;location;lat;lon;timestamp;P1;durP1;ratioP1;P2;durP2;ratioP2
11084;SDS011;5596;46.826;8.650;2023-02-21T00:02:05;1.70;;;1.60;;
11084;SDS011;5596;46.826;8.650;2023-02-21T00:04:49;2.27;;;1.40;;
11084;SDS011;5596;46.826;8.650;2023-02-21T00:07:35;1.13;;;1.03;;
11084;SDS011;5596;46.826;8.650;2023-02-21T00:10:19;3.57;;;1.30;;
11084;SDS011;5596;46.826;8.650;2023-02-21T00:13:03;2.50;;;1.80;;
11084;SDS011;5596;46.826;8.650;2023-02-21T00:15:47;4.47;;;2.10;;
11084;SDS011;5596;46.826;8.650;2023-02-21T00:18:32;3.07;;;1.83;;
11084;SDS011;5596;46.826;8.650;2023-02-21T00:21:16;4.63;;;2.07;;
11084;SDS011;5596;46.826;8.650;2023-02-21T00:24:02;2.33;;;1.97;;
11084;SDS011;5596;46.826;8.650;2023-02-21T00:26:46;2.40;;;1.37;;
11084;SDS011;5596;46.826;8.650;2023-02-21T00:29:31;2.70;;;1.67;;
11084;SDS011;5596;46.826;8.650;2023-02-21T00:32:15;1.73;;;1.40;;
11084;SDS011;5596;46.826;8.650;2023-02-21T00:34:59;2.37;;;1.50;;
11084;SDS011;5596;46.826;8.650;2023-02-21T00:37:44;3.60;;;1.47;;
11084;SDS011;5596;46.826;8.650;2023-02-21T00:40:29;5.20;;;1.70;;
11084;SDS011;5596;46.826;8.650;2023-02-21T00:43:13;1.67;;;1.30;;
11084;SDS011;5596;46.826;8.650;2023-02-21T00:45:57;2.67;;;1.40;;
11084;SDS011;5596;46.826;8.650;2023-02-21T00:48:41;3.00;;;1.37;;
11084;SDS011;5596;46.826;8.650;2023-02-21T00:51:25;2.03;;;1.50;;
11084;SDS011;5596;46.826;8.650;2023-02-21T00:54:10;4.37;;;1.90;;
11084;SDS011;5596;46.826;8.650;2023-02-21T00:56:55;2.50;;;1.93;;
11084;SDS011;5596;46.826;8.650;2023-02-21T00:59:39;1.83;;;1.30;;
11084;SDS011;5596;46.826;8.650;2023-02-21T01:02:23;2.23;;;1.30;;
11084;SDS011;5596;46.826;8.650;2023-02-21T01:05:08;1.43;;;1.33;;
11084;SDS011;5596;46.826;8.650;2023-02-21T01:07:52;2.43;;;1.40;;
11084;SDS011;5596;46.826;8.650;2023-02-21T01:10:39;2.63;;;1.90;;
11084;SDS011;5596;46.826;8.650;2023-02-21T01:13:25;2.23;;;1.47;;
11084;SDS011;5596;46.826;8.650;2023-02-21T01:16:09;3.23;;;1.80;;
11084;SDS011;5596;46.826;8.650;2023-02-21T01:18:53;2.03;;;1.33;;
11084;SDS011;5596;46.826;8.650;2023-02-21T01:21:37;3.73;;;1.70;;
11084;SDS011;5596;46.826;8.650;2023-02-21T01:24:21;2.07;;;1.40;;
11084;SDS011;5596;46.826;8.650;2023-02-21T01:27:05;2.53;;;1.70;;
11084;SDS011;5596;46.826;8.650;2023-02-21T01:29:51;2.27;;;1.70;;
11084;SDS011;5596;46.826;8.650;2023-02-21T01:32:36;3.47;;;1.70;;
11084;SDS011;5596;46.826;8.650;2023-02-21T01:35:20;2.07;;;1.17;;
11084;SDS011;5596;46.826;8.650;2023-02-21T01:38:04;1.37;;;1.27;;
11084;SDS011;5596;46.826;8.650;2023-02-21T01:40:48;3.13;;;1.30;;
11084;SDS011;5596;46.826;8.650;2023-02-21T01:43:34;2.80;;;1.30;;
11084;SDS011;5596;46.826;8.650;2023-02-21T01:46:19;1.30;;;1.20;;
11084;SDS011;5596;46.826;8.650;2023-02-21T01:49:04;1.87;;;1.10;;
11084;SDS011;5596;46.826;8.650;2023-02-21T01:51:49;3.87;;;1.40;;
11084;SDS011;5596;46.826;8.650;2023-02-21T01:54:35;2.97;;;1.60;;
11084;SDS011;5596;46.826;8.650;2023-02-21T01:57:20;2.60;;;1.70;;
11084;SDS011;5596;46.826;8.650;2023-02-21T02:00:06;3.37;;;1.70;;
11084;SDS011;5596;46.826;8.650;2023-02-21T02:02:55;2.50;;;1.77;;
11084;SDS011;5596;46.826;8.650;2023-02-21T02:05:39;5.47;;;2.00;;
11084;SDS011;5596;46.826;8.650;2023-02-21T02:08:26;3.90;;;1.83;;
11084;SDS011;5596;46.826;8.650;2023-02-21T02:11:14;2.13;;;1.90;;
11084;SDS011;5596;46.826;8.650;2023-02-21T02:14:03;3.00;;;1.93;;
11084;SDS011;5596;46.826;8.650;2023-02-21T02:16:34;2.23;;;1.73;;
11084;SDS011;5596;46.826;8.650;2023-02-21T02:19:25;4.53;;;1.90;;
11084;SDS011;5596;46.826;8.650;2023-02-21T02:22:06;2.27;;;1.80;;
11084;SDS011;5596;46.826;8.650;2023-02-21T02:24:43;3.90;;;1.60;;
11084;SDS011;5596;46.826;8.650;2023-02-21T02:27:24;4.30;;;1.80;;
11084;SDS011;5596;46.826;8.650;2023-02-21T02:30:10;5.77;;;2.17;;
11084;SDS011;5596;46.826;8.650;2023-02-21T02:32:45;4.30;;;1.77;;
11084;SDS011;5596;46.826;8.650;2023-02-21T02:35:19;2.23;;;1.90;;
11084;SDS011;5596;46.826;8.650;2023-02-21T02:37:48;3.10;;;1.90;;
11084;SDS011;5596;46.826;8.650;2023-02-21T02:40:19;2.30;;;1.60;;
11084;SDS011;5596;46.826;8.650;2023-02-21T02:42:50;3.40;;;2.10;;
11084;SDS011;5596;46.826;8.650;2023-02-21T02:45:21;3.93;;;2.07;;
11084;SDS011;5596;46.826;8.650;2023-02-21T02:47:51;3.00;;;2.30;;
11084;SDS011;5596;46.826;8.650;2023-02-21T02:50:20;5.53;;;2.00;;
11084;SDS011;5596;46.826;8.650;2023-02-21T02:52:51;7.30;;;1.87;;
11084;SDS011;5596;46.826;8.650;2023-02-21T02:55:20;3.27;;;2.00;;
11084;SDS011;5596;46.826;8.650;2023-02-21T02:57:48;2.17;;;1.90;;
11084;SDS011;5596;46.826;8.650;2023-02-21T03:00:17;3.70;;;2.10;;
11084;SDS011;5596;46.826;8.650;2023-02-21T03:02:48;5.97;;;2.10;;
11084;SDS011;5596;46.826;8.650;2023-02-21T03:05:21;5.07;;;2.40;;
11084;SDS011;5596;46.826;8.650;2023-02-21T03:07:55;4.10;;;2.13;;
11084;SDS011;5596;46.826;8.650;2023-02-21T03:10:28;3.50;;;2.40;;
11084;SDS011;5596;46.826;8.650;2023-02-21T03:12:59;2.67;;;1.90;;
11084;SDS011;5596;46.826;8.650;2023-02-21T03:15:31;3.40;;;1.97;;
11084;SDS011;5596;46.826;8.650;2023-02-21T03:18:02;2.80;;;1.73;;
11084;SDS011;5596;46.826;8.650;2023-02-21T03:20:32;3.67;;;1.90;;
11084;SDS011;5596;46.826;8.650;2023-02-21T03:22:58;3.17;;;2.10;;
11084;SDS011;5596;46.826;8.650;2023-02-21T03:25:26;2.60;;;1.90;;
11084;SDS011;5596;46.826;8.650;2023-02-21T03:27:56;2.57;;;1.80;;
11084;SDS011;5596;46.826;8.650;2023-02-21T03:30:30;7.10;;;2.93;;
11084;SDS011;5596;46.826;8.650;2023-02-21T03:32:57;3.10;;;1.80;;
11084;SDS011;5596;46.826;8.650;2023-02-21T03:35:26;2.60;;;1.77;;
11084;SDS011;5596;46.826;8.650;2023-02-21T03:37:56;2.73;;;1.80;;
11084;SDS011;5596;46.826;8.650;2023-02-21T03:40:26;2.33;;;1.60;;
11084;SDS011;5596;46.826;8.650;2023-02-21T03:42:55;3.47;;;1.87;;
11084;SDS011;5596;46.826;8.650;2023-02-21T03:45:24;3.60;;;1.60;;
11084;SDS011;5596;46.826;8.650;2023-02-21T03:48:10;3.60;;;2.10;;
11084;SDS011;5596;46.826;8.650;2023-02-21T03:50:39;4.50;;;2.43;;
11084;SDS011;5596;46.826;8.650;2023-02-21T03:53:08;2.27;;;1.87;;
11084;SDS011;5596;46.826;8.650;2023-02-21T03:55:35;4.10;;;2.10;;
11084;SDS011;5596;46.826;8.650;2023-02-21T03:58:06;3.30;;;1.80;;
11084;SDS011;5596;46.826;8.650;2023-02-21T04:00:35;2.83;;;1.73;;
11084;SDS011;5596;46.826;8.650;2023-02-21T04:03:02;2.73;;;1.60;;
11084;SDS011;5596;46.826;8.650;2023-02-21T04:05:36;1.93;;;1.50;;
11084;SDS011;5596;46.826;8.650;2023-02-21T04:08:03;3.50;;;2.20;;
11084;SDS011;5596;46.826;8.650;2023-02-21T04:10:32;3.33;;;1.93;;
11084;SDS011;5596;46.826;8.650;2023-02-21T04:12:59;3.87;;;1.80;;
11084;SDS011;5596;46.826;8.650;2023-02-21T04:15:30;3.73;;;2.33;;
11084;SDS011;5596;46.826;8.650;2023-02-21T04:17:57;3.20;;;1.63;;
11084;SDS011;5596;46.826;8.650;2023-02-21T04:20:24;3.20;;;1.80;;
11084;SDS011;5596;46.826;8.650;2023-02-21T04:22:54;4.10;;;1.50;;
11084;SDS011;5596;46.826;8.650;2023-02-21T04:25:21;1.47;;;1.30;;
11084;SDS011;5596;46.826;8.650;2023-02-21T04:27:52;1.73;;;1.30;;
11084;SDS011;5596;46.826;8.650;2023-02-21T04:30:19;2.73;;;1.60;;
11084;SDS011;5596;46.826;8.650;2023-02-21T04:32:46;1.73;;;1.50;;
11084;SDS011;5596;46.826;8.650;2023-02-21T04:35:13;2.83;;;1.40;;
11084;SDS011;5596;46.826;8.650;2023-02-21T04:37:41;2.53;;;1.50;;
11084;SDS011;5596;46.826;8.650;2023-02-21T04:40:10;2.20;;;1.40;;
11084;SDS011;5596;46.826;8.650;2023-02-21T04:42:37;2.63;;;1.20;;
11084;SDS011;5596;46.826;8.650;2023-02-21T04:45:05;2.03;;;1.13;;
11084;SDS011;5596;46.826;8.650;2023-02-21T04:47:32;1.90;;;1.20;;
11084;SDS011;5596;46.826;8.650;2023-02-21T04:49:59;1.30;;;1.13;;
11084;SDS011;5596;46.826;8.650;2023-02-21T04:52:25;1.37;;;1.13;;
11084;SDS011;5596;46.826;8.650;2023-02-21T04:54:52;2.70;;;1.30;;
11084;SDS011;5596;46.826;8.650;2023-02-21T04:57:19;3.47;;;1.30;;
11084;SDS011;5596;46.826;8.650;2023-02-21T04:59:45;2.50;;;1.10;;
11084;SDS011;5596;46.826;8.650;2023-02-21T05:02:13;4.13;;;1.40;;
11084;SDS011;5596;46.826;8.650;2023-02-21T05:04:40;2.33;;;0.93;;
11084;SDS011;5596;46.826;8.650;2023-02-21T05:07:07;1.10;;;1.00;;
11084;SDS011;5596;46.826;8.650;2023-02-21T05:09:35;2.37;;;1.33;;
11084;SDS011;5596;46.826;8.650;2023-02-21T05:12:01;1.57;;;1.23;;
11084;SDS011;5596;46.826;8.650;2023-02-21T05:14:28;3.67;;;1.60;;
11084;SDS011;5596;46.826;8.650;2023-02-21T05:16:55;2.00;;;1.37;;
11084;SDS011;5596;46.826;8.650;2023-02-21T05:19:25;3.40;;;2.17;;
11084;SDS011;5596;46.826;8.650;2023-02-21T05:21:53;5.50;;;1.90;;
11084;SDS011;5596;46.826;8.650;2023-02-21T05:24:20;2.20;;;1.80;;
11084;SDS011;5596;46.826;8.650;2023-02-21T05:26:46;2.63;;;1.80;;
11084;SDS011;5596;46.826;8.650;2023-02-21T05:29:13;1.67;;;1.50;;
11084;SDS011;5596;46.826;8.650;2023-02-21T05:31:40;4.17;;;1.90;;
11084;SDS011;5596;46.826;8.650;2023-02-21T05:34:07;2.90;;;1.80;;
11084;SDS011;5596;46.826;8.650;2023-02-21T05:36:36;2.37;;;1.60;;
11084;SDS011;5596;46.826;8.650;2023-02-21T05:39:03;2.27;;;1.60;;
11084;SDS011;5596;46.826;8.650;2023-02-21T05:41:30;2.27;;;1.90;;
11084;SDS011;5596;46.826;8.650;2023-02-21T05:43:57;6.17;;;2.30;;
11084;SDS011;5596;46.826;8.650;2023-02-21T05:46:24;4.93;;;1.83;;
11084;SDS011;5596;46.826;8.650;2023-02-21T05:48:51;7.17;;;1.80;;
11084;SDS011;5596;46.826;8.650;2023-02-21T05:51:18;2.90;;;1.40;;
11084;SDS011;5596;46.826;8.650;2023-02-21T05:53:46;1.83;;;1.03;;
11084;SDS011;5596;46.826;8.650;2023-02-21T05:56:14;2.50;;;1.63;;
11084;SDS011;5596;46.826;8.650;2023-02-21T05:58:41;3.33;;;2.00;;
11084;SDS011;5596;46.826;8.650;2023-02-21T06:01:07;3.27;;;2.20;;
11084;SDS011;5596;46.826;8.650;2023-02-21T06:03:34;3.70;;;1.83;;
11084;SDS011;5596;46.826;8.650;2023-02-21T06:06:01;2.53;;;1.77;;
11084;SDS011;5596;46.826;8.650;2023-02-21T06:08:28;5.10;;;2.00;;
11084;SDS011;5596;46.826;8.650;2023-02-21T06:10:56;4.07;;;2.03;;
11084;SDS011;5596;46.826;8.650;2023-02-21T06:13:23;3.97;;;1.80;;
11084;SDS011;5596;46.826;8.650;2023-02-21T06:15:50;4.33;;;1.90;;
11084;SDS011;5596;46.826;8.650;2023-02-21T06:18:17;2.23;;;1.50;;
11084;SDS011;5596;46.826;8.650;2023-02-21T06:20:44;3.93;;;1.70;;
11084;SDS011;5596;46.826;8.650;2023-02-21T06:23:11;4.63;;;1.60;;
11084;SDS011;5596;46.826;8.650;2023-02-21T06:25:37;2.97;;;2.33;;
11084;SDS011;5596;46.826;8.650;2023-02-21T06:28:05;3.40;;;2.37;;
11084;SDS011;5596;46.826;8.650;2023-02-21T06:30:32;2.90;;;2.20;;
11084;SDS011;5596;46.826;8.650;2023-02-21T06:32:59;2.20;;;1.83;;
11084;SDS011;5596;46.826;8.650;2023-02-21T06:35:25;3.93;;;1.90;;
11084;SDS011;5596;46.826;8.650;2023-02-21T06:37:52;6.10;;;2.50;;
11084;SDS011;5596;46.826;8.650;2023-02-21T06:40:19;5.57;;;2.13;;
11084;SDS011;5596;46.826;8.650;2023-02-21T06:42:45;5.57;;;1.73;;
11084;SDS011;5596;46.826;8.650;2023-02-21T06:45:14;6.50;;;2.30;;
11084;SDS011;5596;46.826;8.650;2023-02-21T06:47:40;4.53;;;2.50;;
11084;SDS011;5596;46.826;8.650;2023-02-21T06:50:07;2.70;;;1.90;;
11084;SDS011;5596;46.826;8.650;2023-02-21T06:52:34;5.57;;;2.20;;
11084;SDS011;5596;46.826;8.650;2023-02-21T06:55:05;5.83;;;2.10;;
11084;SDS011;5596;46.826;8.650;2023-02-21T06:57:32;5.67;;;2.30;;
11084;SDS011;5596;46.826;8.650;2023-02-21T06:59:58;5.77;;;2.83;;
11084;SDS011;5596;46.826;8.650;2023-02-21T07:02:26;6.97;;;3.50;;
11084;SDS011;5596;46.826;8.650;2023-02-21T07:04:53;10.07;;;3.77;;
11084;SDS011;5596;46.826;8.650;2023-02-21T07:07:20;8.60;;;3.93;;
11084;SDS011;5596;46.826;8.650;2023-02-21T07:09:47;5.23;;;3.40;;
11084;SDS011;5596;46.826;8.650;2023-02-21T07:12:13;8.57;;;3.90;;
11084;SDS011;5596;46.826;8.650;2023-02-21T07:14:41;5.00;;;3.73;;
11084;SDS011;5596;46.826;8.650;2023-02-21T07:17:07;5.73;;;3.60;;
11084;SDS011;5596;46.826;8.650;2023-02-21T07:19:35;8.17;;;4.10;;
11084;SDS011;5596;46.826;8.650;2023-02-21T07:22:02;9.50;;;4.40;;
11084;SDS011;5596;46.826;8.650;2023-02-21T07:24:29;9.67;;;3.77;;
11084;SDS011;5596;46.826;8.650;2023-02-21T07:26:55;4.57;;;3.60;;
11084;SDS011;5596;46.826;8.650;2023-02-21T07:29:22;5.23;;;3.50;;
11084;SDS011;5596;46.826;8.650;2023-02-21T07:31:49;4.77;;;3.50;;
11084;SDS011;5596;46.826;8.650;2023-02-21T07:34:16;6.73;;;4.40;;
11084;SDS011;5596;46.826;8.650;2023-02-21T07:36:45;8.30;;;4.53;;
11084;SDS011;5596;46.826;8.650;2023-02-21T07:39:12;10.03;;;4.60;;
11084;SDS011;5596;46.826;8.650;2023-02-21T07:41:38;7.40;;;4.20;;
11084;SDS011;5596;46.826;8.650;2023-02-21T07:44:08;9.83;;;4.57;;
11084;SDS011;5596;46.826;8.650;2023-02-21T07:46:34;8.30;;;4.13;;
11084;SDS011;5596;46.826;8.650;2023-02-21T07:49:01;7.30;;;4.63;;
11084;SDS011;5596;46.826;8.650;2023-02-21T07:51:28;12.10;;;5.53;;
11084;SDS011;5596;46.826;8.650;2023-02-21T07:53:56;8.13;;;5.43;;
11084;SDS011;5596;46.826;8.650;2023-02-21T07:56:23;13.43;;;5.20;;
11084;SDS011;5596;46.826;8.650;2023-02-21T07:58:49;9.50;;;5.77;;
11084;SDS011;5596;46.826;8.650;2023-02-21T08:01:16;12.03;;;5.47;;
11084;SDS011;5596;46.826;8.650;2023-02-21T08:03:43;10.07;;;5.27;;
11084;SDS011;5596;46.826;8.650;2023-02-21T08:06:10;7.17;;;4.70;;
11084;SDS011;5596;46.826;8.650;2023-02-21T08:08:37;6.10;;;4.40;;
11084;SDS011;5596;46.826;8.650;2023-02-21T08:11:05;6.97;;;3.73;;
11084;SDS011;5596;46.826;8.650;2023-02-21T08:13:33;8.07;;;4.23;;
11084;SDS011;5596;46.826;8.650;2023-02-21T08:15:59;9.27;;;4.10;;
11084;SDS011;5596;46.826;8.650;2023-02-21T08:18:26;4.73;;;3.57;;
11084;SDS011;5596;46.826;8.650;2023-02-21T08:20:53;7.33;;;5.00;;
11084;SDS011;5596;46.826;8.650;2023-02-21T08:23:21;7.87;;;5.27;;
11084;SDS011;5596;46.826;8.650;2023-02-21T08:25:48;8.53;;;5.00;;
11084;SDS011;5596;46.826;8.650;2023-02-21T08:28:16;7.00;;;5.40;;
11084;SDS011;5596;46.826;8.650;2023-02-21T08:30:42;7.23;;;4.60;;
11084;SDS011;5596;46.826;8.650;2023-02-21T08:33:09;9.87;;;4.97;;
11084;SDS011;5596;46.826;8.650;2023-02-21T08:35:36;7.83;;;3.97;;
11084;SDS011;5596;46.826;8.650;2023-02-21T08:38:03;6.83;;;3.30;;
11084;SDS011;5596;46.826;8.650;2023-02-21T08:40:30;4.53;;;3.30;;
11084;SDS011;5596;46.826;8.650;2023-02-21T08:42:58;4.33;;;2.47;;
11084;SDS011;5596;46.826;8.650;2023-02-21T08:45:26;3.27;;;1.97;;
11084;SDS011;5596;46.826;8.650;2023-02-21T08:47:53;3.77;;;1.67;;
11084;SDS011;5596;46.826;8.650;2023-02-21T08:50:21;2.73;;;1.70;;
11084;SDS011;5596;46.826;8.650;2023-02-21T08:52:48;2.53;;;1.20;;
11084;SDS011;5596;46.826;8.650;2023-02-21T08:55:16;2.23;;;1.50;;
11084;SDS011;5596;46.826;8.650;2023-02-21T08:57:44;1.30;;;1.20;;
11084;SDS011;5596;46.826;8.650;2023-02-21T09:00:12;2.03;;;1.40;;
11084;SDS011;5596;46.826;8.650;2023-02-21T09:02:40;2.07;;;1.60;;
11084;SDS011;5596;46.826;8.650;2023-02-21T09:05:07;3.30;;;1.27;;
11084;SDS011;5596;46.826;8.650;2023-02-21T09:07:34;4.77;;;1.60;;
11084;SDS011;5596;46.826;8.650;2023-02-21T09:10:01;2.27;;;1.37;;
11084;SDS011;5596;46.826;8.650;2023-02-21T09:12:28;2.43;;;1.30;;
11084;SDS011;5596;46.826;8.650;2023-02-21T09:14:54;2.40;;;1.30;;
11084;SDS011;5596;46.826;8.650;2023-02-21T09:17:21;3.47;;;1.40;;
11084;SDS011;5596;46.826;8.650;2023-02-21T09:19:49;2.23;;;1.60;;
11084;SDS011;5596;46.826;8.650;2023-02-21T09:22:16;3.50;;;1.73;;
11084;SDS011;5596;46.826;8.650;2023-02-21T09:24:43;1.80;;;1.53;;
11084;SDS011;5596;46.826;8.650;2023-02-21T09:27:09;4.57;;;1.63;;
11084;SDS011;5596;46.826;8.650;2023-02-21T09:29:36;3.53;;;1.90;;
11084;SDS011;5596;46.826;8.650;2023-02-21T09:32:03;3.00;;;1.50;;
11084;SDS011;5596;46.826;8.650;2023-02-21T09:34:30;5.50;;;2.20;;
11084;SDS011;5596;46.826;8.650;2023-02-21T09:36:58;5.97;;;3.33;;
11084;SDS011;5596;46.826;8.650;2023-02-21T09:39:25;6.50;;;2.30;;
11084;SDS011;5596;46.826;8.650;2023-02-21T09:41:51;5.43;;;2.10;;
11084;SDS011;5596;46.826;8.650;2023-02-21T09:44:22;4.43;;;2.20;;
11084;SDS011;5596;46.826;8.650;2023-02-21T09:46:50;5.17;;;1.77;;
11084;SDS011;5596;46.826;8.650;2023-02-21T09:49:20;9.37;;;2.20;;
11084;SDS011;5596;46.826;8.650;2023-02-21T09:51:47;2.40;;;1.77;;
11084;SDS011;5596;46.826;8.650;2023-02-21T09:54:16;4.67;;;1.80;;
11084;SDS011;5596;46.826;8.650;2023-02-21T09:56:45;3.57;;;2.03;;
11084;SDS011;5596;46.826;8.650;2023-02-21T09:59:12;4.57;;;1.90;;
11084;SDS011;5596;46.826;8.650;2023-02-21T10:01:44;5.20;;;2.23;;
11084;SDS011;5596;46.826;8.650;2023-02-21T10:04:14;6.70;;;1.90;;
11084;SDS011;5596;46.826;8.650;2023-02-21T10:06:45;3.43;;;1.90;;
11084;SDS011;5596;46.826;8.650;2023-02-21T10:09:18;5.87;;;2.10;;
11084;SDS011;5596;46.826;8.650;2023-02-21T10:11:50;4.10;;;1.83;;
11084;SDS011;5596;46.826;8.650;2023-02-21T10:14:22;7.20;;;1.73;;
11084;SDS011;5596;46.826;8.650;2023-02-21T10:16:55;2.40;;;1.63;;
11084;SDS011;5596;46.826;8.650;2023-02-21T10:19:23;3.50;;;1.80;;
11084;SDS011;5596;46.826;8.650;2023-02-21T10:21:51;3.90;;;1.83;;
11084;SDS011;5596;46.826;8.650;2023-02-21T10:24:21;3.43;;;1.97;;
11084;SDS011;5596;46.826;8.650;2023-02-21T10:26:51;2.77;;;1.90;;
11084;SDS011;5596;46.826;8.650;2023-02-21T10:29:21;5.83;;;1.93;;
11084;SDS011;5596;46.826;8.650;2023-02-21T10:31:49;4.87;;;2.03;;
11084;SDS011;5596;46.826;8.650;2023-02-21T10:34:19;5.67;;;1.90;;
11084;SDS011;5596;46.826;8.650;2023-02-21T10:36:48;3.97;;;1.80;;
11084;SDS011;5596;46.826;8.650;2023-02-21T10:39:16;3.37;;;1.77;;
11084;SDS011;5596;46.826;8.650;2023-02-21T10:41:46;5.07;;;2.00;;
11084;SDS011;5596;46.826;8.650;2023-02-21T10:44:15;5.23;;;2.03;;
11084;SDS011;5596;46.826;8.650;2023-02-21T10:46:44;6.83;;;2.30;;
11084;SDS011;5596;46.826;8.650;2023-02-21T10:49:16;11.47;;;2.40;;
11084;SDS011;5596;46.826;8.650;2023-02-21T10:51:44;3.47;;;2.03;;
11084;SDS011;5596;46.826;8.650;2023-02-21T10:54:21;3.37;;;1.70;;
11084;SDS011;5596;46.826;8.650;2023-02-21T10:56:50;6.73;;;2.27;;
11084;SDS011;5596;46.826;8.650;2023-02-21T10:59:18;3.30;;;1.90;;
11084;SDS011;5596;46.826;8.650;2023-02-21T11:01:46;6.47;;;2.20;;
11084;SDS011;5596;46.826;8.650;2023-02-21T11:04:26;11.90;;;2.37;;
11084;SDS011;5596;46.826;8.650;2023-02-21T11:06:54;6.07;;;2.00;;
11084;SDS011;5596;46.826;8.650;2023-02-21T11:09:38;4.17;;;2.30;;
11084;SDS011;5596;46.826;8.650;2023-02-21T11:12:15;3.80;;;2.37;;
11084;SDS011;5596;46.826;8.650;2023-02-21T11:14:43;4.70;;;2.37;;
11084;SDS011;5596;46.826;8.650;2023-02-21T11:17:12;3.30;;;2.20;;
11084;SDS011;5596;46.826;8.650;2023-02-21T11:19:50;5.73;;;2.00;;
11084;SDS011;5596;46.826;8.650;2023-02-21T11:22:17;2.73;;;1.83;;
11084;SDS011;5596;46.826;8.650;2023-02-21T11:24:46;4.13;;;2.40;;
11084;SDS011;5596;46.826;8.650;2023-02-21T11:27:17;3.90;;;2.07;;
11084;SDS011;5596;46.826;8.650;2023-02-21T11:29:44;2.80;;;2.00;;
11084;SDS011;5596;46.826;8.650;2023-02-21T11:32:18;4.60;;;2.73;;
11084;SDS011;5596;46.826;8.650;2023-02-21T11:34:45;3.63;;;2.23;;
11084;SDS011;5596;46.826;8.650;2023-02-21T11:37:13;5.50;;;2.23;;
11084;SDS011;5596;46.826;8.650;2023-02-21T11:39:40;8.13;;;2.40;;
11084;SDS011;5596;46.826;8.650;2023-02-21T11:47:49;8.13;;;2.50;;
11084;SDS011;5596;46.826;8.650;2023-02-21T11:50:21;6.13;;;2.70;;
11084;SDS011;5596;46.826;8.650;2023-02-21T11:52:51;4.77;;;2.57;;
11084;SDS011;5596;46.826;8.650;2023-02-21T11:55:20;4.10;;;2.60;;
11084;SDS011;5596;46.826;8.650;2023-02-21T11:57:50;4.87;;;2.80;;
11084;SDS011;5596;46.826;8.650;2023-02-21T12:00:24;6.57;;;2.77;;
11084;SDS011;5596;46.826;8.650;2023-02-21T12:02:57;3.37;;;2.57;;
11084;SDS011;5596;46.826;8.650;2023-02-21T12:05:29;4.47;;;2.40;;
11084;SDS011;5596;46.826;8.650;2023-02-21T12:08:02;5.33;;;2.53;;
11084;SDS011;5596;46.826;8.650;2023-02-21T12:10:32;6.33;;;2.67;;
11084;SDS011;5596;46.826;8.650;2023-02-21T12:13:06;4.83;;;2.67;;
11084;SDS011;5596;46.826;8.650;2023-02-21T12:15:38;7.20;;;2.60;;
11084;SDS011;5596;46.826;8.650;2023-02-21T12:18:14;4.23;;;2.40;;
11084;SDS011;5596;46.826;8.650;2023-02-21T12:20:49;5.33;;;2.50;;
11084;SDS011;5596;46.826;8.650;2023-02-21T12:23:22;7.00;;;2.60;;
11084;SDS011;5596;46.826;8.650;2023-02-21T12:25:54;3.23;;;2.17;;
11084;SDS011;5596;46.826;8.650;2023-02-21T12:28:28;3.53;;;2.70;;
11084;SDS011;5596;46.826;8.650;2023-02-21T12:31:04;5.63;;;2.67;;
11084;SDS011;5596;46.826;8.650;2023-02-21T12:33:40;4.20;;;2.00;;
11084;SDS011;5596;46.826;8.650;2023-02-21T12:36:20;6.67;;;2.70;;
11084;SDS011;5596;46.826;8.650;2023-02-21T12:38:52;3.50;;;2.37;;
11084;SDS011;5596;46.826;8.650;2023-02-21T12:41:25;4.67;;;2.20;;
11084;SDS011;5596;46.826;8.650;2023-02-21T12:43:55;6.93;;;2.47;;
11084;SDS011;5596;46.826;8.650;2023-02-21T12:46:25;3.63;;;2.03;;
11084;SDS011;5596;46.826;8.650;2023-02-21T12:48:56;6.17;;;1.93;;
11084;SDS011;5596;46.826;8.650;2023-02-21T12:51:25;7.90;;;2.43;;
11084;SDS011;5596;46.826;8.650;2023-02-21T12:53:52;2.37;;;1.70;;
11084;SDS011;5596;46.826;8.650;2023-02-21T12:56:23;3.47;;;1.93;;
11084;SDS011;5596;46.826;8.650;2023-02-21T12:58:51;3.77;;;1.80;;
11084;SDS011;5596;46.826;8.650;2023-02-21T13:01:20;2.13;;;1.70;;
11084;SDS011;5596;46.826;8.650;2023-02-21T13:03:51;3.27;;;1.90;;
11084;SDS011;5596;46.826;8.650;2023-02-21T13:06:24;2.20;;;1.60;;
11084;SDS011;5596;46.826;8.650;2023-02-21T13:08:55;2.03;;;1.60;;
11084;SDS011;5596;46.826;8.650;2023-02-21T13:11:26;4.03;;;1.93;;
11084;SDS011;5596;46.826;8.650;2023-02-21T13:13:53;2.50;;;2.00;;
11084;SDS011;5596;46.826;8.650;2023-02-21T13:16:20;5.33;;;1.80;;
11084;SDS011;5596;46.826;8.650;2023-02-21T13:18:48;3.77;;;1.70;;
11084;SDS011;5596;46.826;8.650;2023-02-21T13:21:22;4.97;;;1.80;;
11084;SDS011;5596;46.826;8.650;2023-02-21T13:23:53;3.13;;;1.63;;
11084;SDS011;5596;46.826;8.650;2023-02-21T13:26:56;2.57;;;1.60;;
11084;SDS011;5596;46.826;8.650;2023-02-21T13:29:27;3.03;;;1.67;;
11084;SDS011;5596;46.826;8.650;2023-02-21T13:31:57;3.87;;;1.70;;
11084;SDS011;5596;46.826;8.650;2023-02-21T13:34:25;2.87;;;1.43;;
11084;SDS011;5596;46.826;8.650;2023-02-21T13:36:53;3.73;;;2.03;;
11084;SDS011;5596;46.826;8.650;2023-02-21T13:39:28;5.70;;;1.40;;
11084;SDS011;5596;46.826;8.650;2023-02-21T13:42:00;3.43;;;1.60;;
11084;SDS011;5596;46.826;8.650;2023-02-21T13:44:29;2.50;;;1.53;;
11084;SDS011;5596;46.826;8.650;2023-02-21T13:47:07;3.30;;;1.53;;
11084;SDS011;5596;46.826;8.650;2023-02-21T13:49:36;5.20;;;1.70;;
11084;SDS011;5596;46.826;8.650;2023-02-21T13:52:14;2.37;;;1.60;;
11084;SDS011;5596;46.826;8.650;2023-02-21T13:57:30;4.07;;;1.60;;
11084;SDS011;5596;46.826;8.650;2023-02-21T13:59:57;5.83;;;2.00;;
11084;SDS011;5596;46.826;8.650;2023-02-21T14:02:26;5.67;;;1.83;;
11084;SDS011;5596;46.826;8.650;2023-02-21T14:04:59;2.30;;;1.50;;
11084;SDS011;5596;46.826;8.650;2023-02-21T14:07:44;5.30;;;1.60;;
11084;SDS011;5596;46.826;8.650;2023-02-21T14:10:22;6.00;;;1.97;;
11084;SDS011;5596;46.826;8.650;2023-02-21T14:12:53;3.07;;;1.70;;
11084;SDS011;5596;46.826;8.650;2023-02-21T14:15:20;2.87;;;1.47;;
11084;SDS011;5596;46.826;8.650;2023-02-21T14:17:47;4.97;;;1.90;;
11084;SDS011;5596;46.826;8.650;2023-02-21T14:20:16;2.70;;;1.50;;
11084;SDS011;5596;46.826;8.650;2023-02-21T14:22:45;3.47;;;1.70;;
11084;SDS011;5596;46.826;8.650;2023-02-21T14:25:15;2.20;;;1.90;;
11084;SDS011;5596;46.826;8.650;2023-02-21T14:27:43;2.63;;;1.50;;
11084;SDS011;5596;46.826;8.650;2023-02-21T14:30:25;3.00;;;1.30;;
11084;SDS011;5596;46.826;8.650;2023-02-21T14:32:52;3.60;;;1.67;;
11084;SDS011;5596;46.826;8.650;2023-02-21T14:35:23;2.57;;;1.70;;
11084;SDS011;5596;46.826;8.650;2023-02-21T14:37:54;2.67;;;1.17;;
11084;SDS011;5596;46.826;8.650;2023-02-21T14:40:25;4.53;;;1.53;;
11084;SDS011;5596;46.826;8.650;2023-02-21T14:43:04;2.73;;;1.60;;
11084;SDS011;5596;46.826;8.650;2023-02-21T14:45:43;3.63;;;1.47;;
11084;SDS011;5596;46.826;8.650;2023-02-21T14:53:50;2.03;;;1.17;;
11084;SDS011;5596;46.826;8.650;2023-02-21T14:56:24;2.57;;;1.20;;
11084;SDS011;5596;46.826;8.650;2023-02-21T14:59:00;2.70;;;1.73;;
11084;SDS011;5596;46.826;8.650;2023-02-21T15:01:39;2.27;;;1.40;;
11084;SDS011;5596;46.826;8.650;2023-02-21T15:04:09;3.20;;;1.20;;
11084;SDS011;5596;46.826;8.650;2023-02-21T15:06:38;6.43;;;1.73;;
11084;SDS011;5596;46.826;8.650;2023-02-21T15:09:10;5.60;;;1.60;;
11084;SDS011;5596;46.826;8.650;2023-02-21T15:11:37;4.33;;;2.20;;
11084;SDS011;5596;46.826;8.650;2023-02-21T15:14:15;5.43;;;2.33;;
11084;SDS011;5596;46.826;8.650;2023-02-21T15:16:49;6.97;;;2.00;;
11084;SDS011;5596;46.826;8.650;2023-02-21T15:19:18;9.40;;;2.23;;
11084;SDS011;5596;46.826;8.650;2023-02-21T15:21:45;5.83;;;2.43;;
11084;SDS011;5596;46.826;8.650;2023-02-21T15:24:13;5.17;;;2.53;;
11084;SDS011;5596;46.826;8.650;2023-02-21T15:26:40;6.23;;;2.87;;
11084;SDS011;5596;46.826;8.650;2023-02-21T15:29:08;7.40;;;2.97;;
11084;SDS011;5596;46.826;8.650;2023-02-21T15:31:35;6.03;;;3.40;;
11084;SDS011;5596;46.826;8.650;2023-02-21T15:34:10;6.53;;;3.10;;
11084;SDS011;5596;46.826;8.650;2023-02-21T15:36:38;6.80;;;3.37;;
11084;SDS011;5596;46.826;8.650;2023-02-21T15:39:05;6.00;;;3.07;;
11084;SDS011;5596;46.826;8.650;2023-02-21T15:41:34;5.33;;;2.57;;